Time;durP1;ratioP1;P1;durP2;ratioP2;P2;SDS_P1;SDS_P2;PMS_P1;PMS_P2;Temp;Humidity;BMP_temperature;BMP_pressure;BME280_temperature;BME280_humidity;BME280_pressure;Samples;Min_cycle;Max_cycle;Signal;HPM_P1;HPM_P2
2023/11/23 00:01:04;;;;;;;40.47;26.60;;;;;;;5.80;100.00;102397.47;5042899;28;20116;-74
2023/11/23 00:03:29;;;;;;;39.38;25.35;;;;;;;5.85;100.00;102387.19;5043343;28;20469;-72
2023/11/23 00:05:55;;;;;;;39.75;25.98;;;;;;;5.90;100.00;102383.97;5043981;28;20048;-73
2023/11/23 00:08:20;;;;;;;41.47;26.17;;;;;;;5.93;100.00;102389.34;5041902;28;20112;-72
2023/11/23 00:10:46;;;;;;;40.70;25.88;;;;;;;5.94;100.00;102385.91;5044999;28;20464;-73
2023/11/23 00:13:11;;;;;;;40.85;26.10;;;;;;;5.92;100.00;102377.03;5041471;28;20116;-72
2023/11/23 00:15:36;;;;;;;39.83;25.95;;;;;;;5.87;100.00;102380.31;5044293;28;20084;-73
2023/11/23 00:18:02;;;;;;;41.28;27.13;;;;;;;5.85;100.00;102372.31;5042537;28;20502;-74
2023/11/23 00:20:27;;;;;;;39.53;26.73;;;;;;;5.83;100.00;102366.13;5042956;28;20033;-72
2023/11/23 00:22:53;;;;;;;40.28;27.08;;;;;;;5.85;100.00;102368.81;5042340;28;20025;-75
2023/11/23 00:25:18;;;;;;;41.95;27.92;;;;;;;5.87;100.00;102380.31;5041302;28;20109;-73
2023/11/23 00:27:43;;;;;;;44.58;28.27;;;;;;;5.86;100.00;102374.13;5044699;28;20438;-76
2023/11/23 00:30:09;;;;;;;44.40;29.83;;;;;;;5.86;100.00;102370.63;5041308;28;20038;-76
2023/11/23 00:32:35;;;;;;;46.33;28.73;;;;;;;5.88;100.00;102363.72;5043516;28;20040;-75
2023/11/23 00:35:00;;;;;;;44.28;29.52;;;;;;;5.92;100.00;102363.91;5041974;28;20388;-74
2023/11/23 00:37:26;;;;;;;45.15;29.40;;;;;;;5.92;100.00;102366.53;5042270;28;20160;-75
2023/11/23 00:39:52;;;;;;;44.55;29.38;;;;;;;5.94;100.00;102354.41;5043575;28;20029;-74
2023/11/23 00:42:17;;;;;;;44.47;30.50;;;;;;;5.96;100.00;102359.72;5040116;28;20495;-73
2023/11/23 00:44:42;;;;;;;47.10;30.15;;;;;;;5.93;100.00;102355.22;5044299;28;20431;-76
2023/11/23 00:47:08;;;;;;;50.67;32.15;;;;;;;5.96;100.00;102354.47;5040045;28;20063;-75
2023/11/23 00:49:36;;;;;;;46.58;30.38;;;;;;;6.02;100.00;102348.66;5043193;28;20022;-77
2023/11/23 00:52:01;;;;;;;50.40;30.67;;;;;;;6.01;100.00;102341.59;5042113;28;20033;-76
2023/11/23 00:54:27;;;;;;;46.08;31.17;;;;;;;6.09;100.00;102348.13;5041185;28;20037;-74
2023/11/23 00:56:53;;;;;;;46.72;32.13;;;;;;;6.15;100.00;102340.53;5043264;28;20037;-76
2023/11/23 00:59:18;;;;;;;46.05;30.95;;;;;;;6.17;100.00;102344.09;5041009;28;20030;-76
2023/11/23 01:01:44;;;;;;;48.53;31.77;;;;;;;6.16;100.00;102341.41;5044413;28;20043;-75
2023/11/23 01:04:10;;;;;;;45.55;30.20;;;;;;;6.17;100.00;102343.22;5041141;28;20029;-75
2023/11/23 01:06:35;;;;;;;46.47;30.95;;;;;;;6.22;100.00;102344.34;5043270;28;20447;-74
2023/11/23 01:09:00;;;;;;;45.47;30.33;;;;;;;6.25;100.00;102341.84;5042300;28;20029;-75
2023/11/23 01:11:26;;;;;;;46.35;31.00;;;;;;;6.27;100.00;102335.81;5041986;28;20098;-75
2023/11/23 01:13:51;;;;;;;46.13;30.42;;;;;;;6.28;100.00;102324.50;5043318;28;20112;-74
2023/11/23 01:16:17;;;;;;;45.90;31.02;;;;;;;6.36;100.00;102334.44;5041122;28;20042;-76
2023/11/23 01:18:42;;;;;;;44.15;30.98;;;;;;;6.42;100.00;102332.09;5043958;28;20029;-75
2023/11/23 01:21:08;;;;;;;43.92;29.50;;;;;;;6.52;100.00;102342.19;5040908;28;20479;-75
2023/11/23 01:23:33;;;;;;;42.15;29.17;;;;;;;6.57;100.00;102332.78;5041850;28;20030;-75
2023/11/23 01:25:59;;;;;;;41.65;28.83;;;;;;;6.61;100.00;102334.72;5042242;28;20030;-76
2023/11/23 01:28:24;;;;;;;44.90;28.13;;;;;;;6.63;100.00;102312.03;5041957;28;20079;-74
2023/11/23 01:30:49;;;;;;;40.97;27.40;;;;;;;6.65;100.00;102316.47;5043449;28;20431;-74
2023/11/23 01:33:15;;;;;;;40.55;28.13;;;;;;;6.69;100.00;102316.66;5040723;28;20036;-75
2023/11/23 01:35:40;;;;;;;41.28;28.30;;;;;;;6.73;100.00;102315.09;5043812;28;20029;-75
2023/11/23 01:38:06;;;;;;;40.38;27.58;;;;;;;6.75;100.00;102309.03;5041100;28;20068;-76
2023/11/23 01:40:31;;;;;;;41.80;28.55;;;;;;;6.71;100.00;102312.34;5042398;28;20123;-75
2023/11/23 01:43:09;;;;;;;38.30;27.35;;;;;;;6.72;100.00;102314.16;5042933;28;20388;-75
2023/11/23 01:45:37;;;;;;;38.97;26.83;;;;;;;6.73;100.00;102312.47;5043899;28;20057;-76
2023/11/23 01:48:03;;;;;;;40.20;27.30;;;;;;;6.73;100.00;102315.09;5045329;28;20029;-75
2023/11/23 01:50:30;;;;;;;38.88;27.23;;;;;;;6.78;100.00;102316.16;5045598;28;20472;-76
2023/11/23 01:52:55;;;;;;;37.58;26.05;;;;;;;6.86;100.00;102305.97;5046363;28;20437;-74
2023/11/23 01:55:21;;;;;;;38.30;27.00;;;;;;;6.82;100.00;102304.97;5044447;28;20069;-74
2023/11/23 01:57:50;;;;;;;39.83;26.77;;;;;;;6.79;100.00;102305.72;5047263;28;20039;-75
2023/11/23 02:00:16;;;;;;;39.33;26.67;;;;;;;6.79;100.00;102300.47;5040458;28;20026;-75
2023/11/23 02:02:42;;;;;;;38.97;25.42;;;;;;;6.86;100.00;102295.47;5046047;28;20033;-74
2023/11/23 02:05:09;;;;;;;39.05;26.52;;;;;;;6.83;100.00;102296.25;5044548;28;20357;-73
2023/11/23 02:07:35;;;;;;;40.33;26.77;;;;;;;6.83;100.00;102291.00;5046315;28;20431;-75
2023/11/23 02:10:00;;;;;;;39.15;27.83;;;;;;;6.87;100.00;102292.88;5045286;28;20021;-71
2023/11/23 02:12:27;;;;;;;38.63;26.30;;;;;;;6.91;100.00;102300.09;5044957;28;20033;-73
2023/11/23 02:14:54;;;;;;;38.65;26.67;;;;;;;6.95;100.00;102291.50;5046448;28;20079;-74
2023/11/23 02:17:20;;;;;;;38.60;26.90;;;;;;;7.02;100.00;102307.53;5043707;28;20542;-74
2023/11/23 02:19:47;;;;;;;38.67;26.55;;;;;;;7.04;100.00;102298.00;5029494;28;20392;-75
2023/11/23 02:22:13;;;;;;;38.58;26.77;;;;;;;7.03;100.00;102299.69;5039551;28;20028;-73
2023/11/23 02:24:39;;;;;;;36.88;26.95;;;;;;;7.06;100.00;102299.84;5046457;28;20036;-73
2023/11/23 02:27:06;;;;;;;37.60;26.13;;;;;;;7.11;100.00;102307.94;5044651;28;20074;-73
2023/11/23 02:29:32;;;;;;;38.28;26.40;;;;;;;7.12;100.00;102294.84;5045727;28;20440;-74
2023/11/23 02:31:58;;;;;;;38.35;25.65;;;;;;;7.14;100.00;102302.78;5045241;28;20082;-73
2023/11/23 02:34:24;;;;;;;37.15;25.08;;;;;;;7.17;100.00;102294.13;5044287;28;20022;-72
2023/11/23 02:36:49;;;;;;;35.70;25.33;;;;;;;7.23;100.00;102299.66;5046245;28;20025;-73
2023/11/23 02:39:14;;;;;;;37.00;26.30;;;;;;;7.27;100.00;102305.09;5043112;28;20388;-75
2023/11/23 02:41:40;;;;;;;37.13;25.98;;;;;;;7.36;100.00;102298.41;5046342;28;20115;-75
2023/11/23 02:44:05;;;;;;;34.65;23.73;;;;;;;7.40;100.00;102290.72;5042661;28;20028;-75
2023/11/23 02:46:31;;;;;;;37.13;25.25;;;;;;;7.42;100.00;102282.88;5043339;28;20623;-75
2023/11/23 02:48:57;;;;;;;36.65;25.38;;;;;;;7.41;100.00;102281.06;5044022;28;20040;-75
2023/11/23 02:51:22;;;;;;;36.60;25.90;;;;;;;7.44;100.00;102287.38;5043618;28;20033;-75
2023/11/23 02:53:48;;;;;;;35.85;25.35;;;;;;;7.47;100.00;102276.03;5046195;28;20029;-76
2023/11/23 02:56:15;;;;;;;39.00;27.90;;;;;;;7.52;100.00;102290.31;5043140;28;20061;-75
2023/11/23 02:58:41;;;;;;;38.25;27.08;;;;;;;7.55;100.00;102295.69;5045009;28;20029;-75
2023/11/23 03:01:07;;;;;;;38.25;29.27;;;;;;;7.57;100.00;102296.66;5043433;28;20039;-76
2023/11/23 03:03:32;;;;;;;37.22;28.20;;;;;;;7.61;100.00;102285.38;5044893;28;20447;-75
2023/11/23 03:05:59;;;;;;;38.80;28.92;;;;;;;7.64;100.00;102285.50;5044873;28;20036;-74
2023/11/23 03:08:25;;;;;;;38.85;28.23;;;;;;;7.65;100.00;102284.69;5043430;28;20029;-74
2023/11/23 03:10:50;;;;;;;37.97;28.85;;;;;;;7.63;100.00;102285.44;5045859;28;20111;-75
2023/11/23 03:13:16;;;;;;;37.92;28.30;;;;;;;7.64;100.00;102288.13;5041161;28;20396;-75
2023/11/23 03:15:41;;;;;;;37.72;28.80;;;;;;;7.66;100.00;102278.59;5045842;28;20033;-74
2023/11/23 03:18:07;;;;;;;39.30;28.92;;;;;;;7.68;100.00;102276.91;5043204;28;20043;-75
2023/11/23 03:20:32;;;;;;;38.85;29.08;;;;;;;7.68;100.00;102276.00;5044517;28;20103;-73
2023/11/23 03:22:58;;;;;;;41.38;29.95;;;;;;;7.69;100.00;102275.19;5044497;28;20094;-72
2023/11/23 03:25:24;;;;;;;39.55;29.42;;;;;;;7.68;100.00;102253.22;5025152;28;20061;-73
2023/11/23 03:27:50;;;;;;;38.85;29.17;;;;;;;7.72;100.00;102277.00;5044187;28;20059;-74
2023/11/23 03:30:16;;;;;;;41.03;31.35;;;;;;;7.74;100.00;102276.25;5042459;28;20026;-74
2023/11/23 03:32:41;;;;;;;39.30;29.13;;;;;;;7.78;100.00;102272.00;5045404;28;20025;-73
2023/11/23 03:35:07;;;;;;;39.90;30.70;;;;;;;7.77;100.00;102271.09;5042909;28;20025;-73
2023/11/23 03:37:32;;;;;;;39.45;30.40;;;;;;;7.76;100.00;102274.59;5044290;28;20562;-73
2023/11/23 03:39:57;;;;;;;40.38;30.58;;;;;;;7.77;100.00;102268.47;5044330;28;20551;-74
2023/11/23 03:42:23;;;;;;;42.13;32.58;;;;;;;7.78;100.00;102267.63;5042571;28;20516;-73
2023/11/23 03:44:48;;;;;;;40.95;30.77;;;;;;;7.83;100.00;102265.16;5045377;28;20025;-72
2023/11/23 03:47:13;;;;;;;40.58;31.58;;;;;;;7.79;100.00;102271.16;5041775;28;20045;-73
2023/11/23 03:49:39;;;;;;;42.35;30.92;;;;;;;7.84;100.00;102275.75;5043407;28;20388;-72
2023/11/23 03:52:04;;;;;;;40.88;30.88;;;;;;;7.82;100.00;102271.25;5043115;28;20159;-74
2023/11/23 03:54:30;;;;;;;42.33;30.98;;;;;;;7.86;100.00;102270.53;5043278;28;20164;-73
2023/11/23 03:56:55;;;;;;;40.75;30.05;;;;;;;7.87;100.00;102263.56;5044321;28;20032;-74
2023/11/23 03:59:20;;;;;;;39.15;29.40;;;;;;;7.88;100.00;102268.88;5041904;28;20029;-73
2023/11/23 04:01:47;;;;;;;39.70;30.77;;;;;;;7.93;100.00;102282.22;5045309;28;20181;-73
2023/11/23 04:04:13;;;;;;;37.58;28.88;;;;;;;7.92;100.00;102273.44;5041764;28;20045;-74
2023/11/23 04:06:39;;;;;;;38.25;28.92;;;;;;;7.93;100.00;102266.44;5044160;28;20072;-73
2023/11/23 04:09:04;;;;;;;39.40;28.42;;;;;;;7.93;100.00;102264.69;5042595;28;20369;-73
2023/11/23 04:11:30;;;;;;;37.33;26.98;;;;;;;7.93;100.00;102261.16;5043108;28;20036;-73
2023/11/23 04:13:55;;;;;;;36.35;26.55;;;;;;;7.94;100.00;102261.22;5043792;28;20036;-74
2023/11/23 04:16:20;;;;;;;38.70;27.92;;;;;;;7.95;100.00;102265.66;5040217;28;20034;-73
2023/11/23 04:18:47;;;;;;;37.88;26.88;;;;;;;7.96;100.00;102262.16;5045011;28;20116;-73
2023/11/23 04:21:13;;;;;;;36.63;26.38;;;;;;;7.98;100.00;102255.22;5041371;28;20025;-73
2023/11/23 04:23:39;;;;;;;37.10;26.25;;;;;;;7.98;100.00;102254.31;5044219;28;20098;-72
2023/11/23 04:26:05;;;;;;;37.38;26.10;;;;;;;7.99;100.00;102249.13;5042588;28;20480;-73
2023/11/23 04:28:30;;;;;;;35.58;24.58;;;;;;;7.99;100.00;102246.50;5041296;28;20030;-72
2023/11/23 04:30:56;;;;;;;37.28;26.45;;;;;;;8.02;100.00;102246.59;5042358;28;20031;-74
2023/11/23 04:33:24;;;;;;;36.40;25.38;;;;;;;8.01;100.00;102260.59;5041862;28;20041;-74
2023/11/23 04:35:50;;;;;;;35.20;24.35;;;;;;;8.01;100.00;102257.97;5044146;28;20040;-74
2023/11/23 04:38:15;;;;;;;34.00;23.85;;;;;;;8.05;100.00;102251.06;5041007;28;20033;-74
2023/11/23 04:40:41;;;;;;;37.03;23.98;;;;;;;8.09;100.00;102257.38;5044028;28;20036;-73
2023/11/23 04:43:06;;;;;;;34.20;24.65;;;;;;;8.10;100.00;102254.78;5042055;28;20041;-71
2023/11/23 04:45:31;;;;;;;35.92;24.25;;;;;;;8.10;100.00;102257.41;5042462;28;20037;-73
2023/11/23 04:47:57;;;;;;;35.42;24.35;;;;;;;8.11;100.00;102260.94;5043399;28;20037;-72
2023/11/23 04:50:22;;;;;;;33.90;22.50;;;;;;;8.18;100.00;102249.78;5041317;28;20033;-74
2023/11/23 04:52:47;;;;;;;34.10;23.17;;;;;;;8.19;100.00;102251.59;5044656;28;20033;-75
2023/11/23 04:55:13;;;;;;;34.58;22.85;;;;;;;8.21;100.00;102249.91;5040848;28;20026;-75
2023/11/23 04:57:38;;;;;;;34.42;24.20;;;;;;;8.18;100.00;102257.69;5043359;28;20086;-75
2023/11/23 05:00:05;;;;;;;34.83;23.98;;;;;;;8.25;100.00;102250.91;5042547;28;20118;-76
2023/11/23 05:02:31;;;;;;;34.95;23.20;;;;;;;8.22;100.00;102243.78;5042394;28;20037;-73
2023/11/23 05:04:56;;;;;;;35.95;22.90;;;;;;;8.22;100.00;102251.69;5043321;28;20026;-74
2023/11/23 05:07:24;;;;;;;33.35;23.13;;;;;;;8.25;100.00;102257.06;5041245;28;20515;-77
2023/11/23 05:09:49;;;;;;;33.80;23.13;;;;;;;8.27;100.00;102262.41;5044098;28;20021;-73
2023/11/23 05:12:15;;;;;;;34.22;22.92;;;;;;;8.29;100.00;102264.25;5040626;28;20044;-74
2023/11/23 05:14:40;;;;;;;32.78;22.45;;;;;;;8.24;100.00;102250.00;5043713;28;20037;-76
2023/11/23 05:17:06;;;;;;;32.63;23.15;;;;;;;8.24;100.00;102255.28;5042045;28;20411;-75
2023/11/23 05:19:31;;;;;;;34.47;22.88;;;;;;;8.23;100.00;102245.59;5042207;28;20392;-75
2023/11/23 05:21:57;;;;;;;33.75;23.15;;;;;;;8.22;100.00;102242.91;5046048;28;20033;-75
2023/11/23 05:24:24;;;;;;;34.22;22.98;;;;;;;8.24;100.00;102263.19;5044903;28;20113;-75
2023/11/23 05:26:49;;;;;;;35.10;22.98;;;;;;;8.22;100.00;102251.69;5047876;28;20104;-75
2023/11/23 05:29:15;;;;;;;35.72;23.02;;;;;;;8.23;100.00;102258.78;5044642;28;20113;-74
2023/11/23 05:31:42;;;;;;;34.30;22.95;;;;;;;8.21;100.00;102257.78;5047238;28;20032;-74
2023/11/23 05:34:08;;;;;;;32.78;22.20;;;;;;;8.22;100.00;102256.97;5045273;28;20043;-73
2023/11/23 05:36:33;;;;;;;34.40;23.15;;;;;;;8.18;100.00;102252.41;5046421;28;20108;-75
2023/11/23 05:38:59;;;;;;;34.90;22.85;;;;;;;8.17;100.00;102261.19;5046226;28;20373;-72
2023/11/23 05:41:24;;;;;;;35.50;23.45;;;;;;;8.08;100.00;102255.56;5045114;28;20404;-72
2023/11/23 05:43:50;;;;;;;35.80;23.42;;;;;;;8.02;100.00;102262.41;5047751;28;20037;-72
2023/11/23 05:46:16;;;;;;;34.85;23.35;;;;;;;8.03;100.00;102261.53;5043966;28;20057;-74
2023/11/23 05:48:41;;;;;;;34.78;23.98;;;;;;;8.08;100.00;102250.28;5047265;28;20392;-73
2023/11/23 05:51:06;;;;;;;35.67;22.83;;;;;;;8.06;100.00;102246.72;5045050;28;20525;-72
2023/11/23 05:53:32;;;;;;;35.30;23.70;;;;;;;8.02;100.00;102248.31;5045702;28;20432;-73
2023/11/23 05:55:58;;;;;;;34.92;23.00;;;;;;;8.00;100.00;102243.00;5046421;28;20416;-73
2023/11/23 05:58:23;;;;;;;34.67;23.88;;;;;;;7.99;100.00;102251.75;5044593;28;20554;-74
2023/11/23 06:00:48;;;;;;;35.17;24.02;;;;;;;8.03;100.00;102248.38;5047579;28;20029;-72
2023/11/23 06:03:14;;;;;;;35.42;23.30;;;;;;;8.05;100.00;102255.44;5044208;28;20029;-73
2023/11/23 06:05:39;;;;;;;34.92;23.25;;;;;;;8.07;100.00;102240.59;5046447;28;20468;-72
2023/11/23 06:08:05;;;;;;;35.80;23.60;;;;;;;8.06;100.00;102241.44;5043776;28;20040;-74
2023/11/23 06:10:33;;;;;;;35.33;24.05;;;;;;;8.06;100.00;102236.19;5045246;28;20030;-72
2023/11/23 06:12:58;;;;;;;34.70;23.27;;;;;;;8.05;100.00;102234.38;5045871;28;20055;-73
2023/11/23 06:15:23;;;;;;;35.00;23.42;;;;;;;8.02;100.00;102225.53;5044034;28;20536;-74
2023/11/23 06:17:49;;;;;;;34.58;23.20;;;;;;;8.01;100.00;102221.09;5047026;28;20037;-74
2023/11/23 06:20:14;;;;;;;34.17;22.50;;;;;;;8.05;100.00;102229.13;5043539;28;20017;-73
2023/11/23 06:22:39;;;;;;;34.85;22.13;;;;;;;8.08;100.00;102218.69;5046310;28;20036;-74
2023/11/23 06:25:05;;;;;;;32.53;22.45;;;;;;;8.05;100.00;102231.75;5044697;28;20025;-74
2023/11/23 06:27:32;;;;;;;32.80;21.67;;;;;;;8.08;100.00;102229.22;5044777;28;20346;-73
2023/11/23 06:29:57;;;;;;;34.05;22.42;;;;;;;8.10;100.00;102235.47;5045954;28;20021;-74
2023/11/23 06:32:23;;;;;;;33.22;21.48;;;;;;;8.07;100.00;102220.44;5042345;28;20361;-73
2023/11/23 06:34:48;;;;;;;35.10;22.17;;;;;;;8.00;100.00;102235.09;5046757;28;20037;-74
2023/11/23 06:37:13;;;;;;;32.38;21.02;;;;;;;7.99;100.00;102228.06;5042616;28;20044;-74
2023/11/23 06:39:39;;;;;;;34.63;22.70;;;;;;;7.93;100.00;102217.28;5045539;28;20408;-73
2023/11/23 06:42:04;;;;;;;33.17;21.27;;;;;;;7.91;100.00;102221.59;5044549;28;20044;-73
2023/11/23 06:44:30;;;;;;;33.85;22.15;;;;;;;7.87;100.00;102218.81;5044493;28;20030;-72
2023/11/23 06:46:55;;;;;;;33.25;21.92;;;;;;;7.86;100.00;102223.16;5045396;28;20404;-73
2023/11/23 06:49:21;;;;;;;33.83;22.35;;;;;;;7.90;100.00;102225.06;5042972;28;20111;-73
2023/11/23 06:51:47;;;;;;;34.17;22.17;;;;;;;7.91;100.00;102228.63;5046484;28;20033;-72
2023/11/23 06:54:12;;;;;;;34.92;22.30;;;;;;;7.94;100.00;102228.72;5043220;28;20041;-73
2023/11/23 06:56:38;;;;;;;33.65;21.52;;;;;;;7.99;100.00;102228.06;5043828;28;20026;-71
2023/11/23 06:59:03;;;;;;;33.40;21.50;;;;;;;8.05;100.00;102231.75;5044575;28;20029;-73
2023/11/23 07:01:28;;;;;;;33.72;21.88;;;;;;;8.05;100.00;102231.75;5043757;28;20064;-73
2023/11/23 07:03:54;;;;;;;33.08;21.30;;;;;;;7.97;100.00;102215.66;5046031;28;20029;-72
2023/11/23 07:06:23;;;;;;;35.25;22.00;;;;;;;7.99;100.00;102206.06;5042603;28;20026;-73
2023/11/23 07:08:52;;;;;;;33.50;21.55;;;;;;;7.94;100.00;102205.91;5039012;28;20473;-74
2023/11/23 07:11:19;;;;;;;32.95;21.27;;;;;;;7.91;100.00;102205.81;5038946;28;20025;-73
2023/11/23 07:13:45;;;;;;;33.97;22.17;;;;;;;7.83;100.00;102201.97;5044678;28;20543;-73
2023/11/23 07:16:12;;;;;;;33.67;21.98;;;;;;;7.78;100.00;102201.81;5043110;28;20913;-74
2023/11/23 07:18:38;;;;;;;32.50;21.67;;;;;;;7.77;100.00;102200.00;5044790;28;20203;-73
2023/11/23 07:21:04;;;;;;;33.65;21.42;;;;;;;7.76;100.00;102198.25;5044189;28;20551;-73
2023/11/23 07:23:29;;;;;;;33.78;22.23;;;;;;;7.79;100.00;102194.81;5043655;28;20043;-74
2023/11/23 07:25:55;;;;;;;34.67;22.38;;;;;;;7.81;100.00;102203.69;5045214;28;20361;-73
2023/11/23 07:28:26;;;;;;;33.72;22.42;;;;;;;7.85;100.00;102195.06;5042262;28;20029;-74
2023/11/23 07:30:52;;;;;;;34.20;22.70;;;;;;;7.94;100.00;102192.75;5039077;28;20041;-74
2023/11/23 07:33:18;;;;;;;32.83;22.00;;;;;;;7.93;100.00;102177.78;5045492;28;20365;-75
2023/11/23 07:35:46;;;;;;;33.47;22.08;;;;;;;7.88;100.00;102181.09;5042517;28;20025;-73
2023/11/23 07:38:13;;;;;;;33.28;22.70;;;;;;;7.88;100.00;102191.63;5044756;28;20079;-74
2023/11/23 07:40:38;;;;;;;33.72;22.25;;;;;;;7.85;100.00;102188.03;5042896;28;20033;-72
2023/11/23 07:43:04;;;;;;;34.60;22.73;;;;;;;7.83;100.00;102187.09;5043593;28;20433;-73
2023/11/23 07:45:29;;;;;;;34.00;23.30;;;;;;;7.90;100.00;102185.56;5043873;28;20024;-74
2023/11/23 07:47:55;;;;;;;35.47;22.73;;;;;;;8.00;100.00;102192.09;5042600;28;20030;-73
2023/11/23 07:50:20;;;;;;;33.42;22.38;;;;;;;8.08;100.00;102189.72;5045276;28;20029;-72
2023/11/23 07:52:46;;;;;;;34.72;21.98;;;;;;;8.12;100.00;102196.88;5041725;28;20477;-73
2023/11/23 07:55:15;;;;;;;32.95;22.13;;;;;;;8.18;100.00;102189.19;5044627;28;20098;-74
2023/11/23 07:57:47;;;;;;;33.20;21.80;;;;;;;8.22;100.00;102184.94;5042545;28;20094;-73
2023/11/23 08:00:13;;;;;;;34.90;23.13;;;;;;;8.26;100.00;102184.22;5044786;28;20147;-73
2023/11/23 08:02:38;;;;;;;33.42;21.77;;;;;;;8.31;100.00;102180.00;5042544;28;20040;-73
2023/11/23 08:05:04;;;;;;;33.30;21.90;;;;;;;8.37;100.00;102188.09;5043357;28;20021;-72
2023/11/23 08:07:30;;;;;;;33.20;21.67;;;;;;;8.43;100.00;102190.06;5043637;28;20538;-74
2023/11/23 08:09:57;;;;;;;32.28;20.60;;;;;;;8.49;100.00;102191.22;5042096;28;20022;-73
2023/11/23 08:12:23;;;;;;;33.70;22.30;;;;;;;8.53;100.00;102189.56;5045086;28;20047;-72
2023/11/23 08:14:48;;;;;;;32.72;21.77;;;;;;;8.57;100.00;102185.31;5041511;28;20116;-71
2023/11/23 08:17:13;;;;;;;34.88;22.45;;;;;;;8.59;100.00;102197.72;5044579;28;20029;-73
2023/11/23 08:19:39;;;;;;;32.75;22.60;;;;;;;8.61;100.00;102196.00;5042277;28;20048;-73
2023/11/23 08:22:08;;;;;;;32.58;21.95;;;;;;;8.67;100.00;102193.56;5042993;28;20030;-72
2023/11/23 08:24:33;;;;;;;32.65;21.85;;;;;;;8.69;100.00;102184.00;5043128;28;20107;-75
2023/11/23 08:26:59;;;;;;;32.60;22.05;;;;;;;8.75;100.00;102182.38;5042205;28;20441;-72
2023/11/23 08:29:26;;;;;;;32.55;21.23;;;;;;;8.78;100.00;102183.41;5044059;28;20029;-71
2023/11/23 08:31:52;;;;;;;32.45;21.77;;;;;;;8.79;100.00;102189.56;5041585;28;20034;-72
2023/11/23 08:34:17;;;;;;;32.72;22.85;;;;;;;8.82;100.00;102173.84;5044582;28;20037;-72
2023/11/23 08:36:43;;;;;;;31.42;21.63;;;;;;;8.89;100.00;102175.81;5041806;28;20037;-72
2023/11/23 08:39:12;;;;;;;33.17;24.05;;;;;;;8.91;100.00;102174.13;5043512;28;20029;-72
2023/11/23 08:41:38;;;;;;;33.00;23.58;;;;;;;8.94;100.00;102171.59;5042333;28;20037;-71
2023/11/23 08:44:04;;;;;;;33.70;23.50;;;;;;;8.91;100.00;102163.56;5042618;28;20036;-72
2023/11/23 08:46:30;;;;;;;33.20;23.17;;;;;;;8.93;100.00;102151.34;5042999;28;20045;-72
2023/11/23 08:48:55;;;;;;;33.78;23.73;;;;;;;8.94;100.00;102158.41;5041350;28;20033;-73
2023/11/23 08:51:20;;;;;;;34.25;24.50;;;;;;;8.97;100.00;102158.53;5044323;28;20063;-72
2023/11/23 08:53:46;;;;;;;35.92;24.17;;;;;;;8.99;100.00;102151.53;5041080;28;20049;-73
2023/11/23 08:56:11;;;;;;;33.80;24.35;;;;;;;8.99;100.00;102148.91;5042852;28;20392;-72
2023/11/23 08:58:37;;;;;;;32.00;23.20;;;;;;;9.02;100.00;102156.91;5042049;28;20049;-73
2023/11/23 09:01:03;;;;;;;33.63;23.08;;;;;;;9.02;100.00;102145.47;5042640;28;20034;-71
2023/11/23 09:03:28;;;;;;;33.42;24.00;;;;;;;9.00;100.00;102137.50;5043319;28;20039;-72
2023/11/23 09:05:54;;;;;;;31.80;22.42;;;;;;;9.01;100.00;102120.84;5040992;28;20362;-73
2023/11/23 09:08:20;;;;;;;34.85;23.55;;;;;;;9.04;100.00;102113.03;5044241;28;20029;-71
2023/11/23 09:10:47;;;;;;;34.05;21.88;;;;;;;9.07;100.00;102123.66;5040857;28;20029;-75
2023/11/23 09:13:12;;;;;;;34.47;23.80;;;;;;;9.08;100.00;102133.34;5043369;28;20035;-75
2023/11/23 09:15:37;;;;;;;32.88;23.42;;;;;;;9.13;100.00;102135.25;5042112;28;20025;-75
2023/11/23 09:18:03;;;;;;;32.17;22.85;;;;;;;9.18;100.00;102131.91;5042221;28;20069;-76
2023/11/23 09:20:28;;;;;;;32.83;22.85;;;;;;;9.18;100.00;102146.84;5043199;28;20036;-75
2023/11/23 09:22:54;;;;;;;31.25;20.85;;;;;;;9.22;100.00;102154.00;5040817;28;20045;-74
2023/11/23 09:25:20;;;;;;;31.55;22.38;;;;;;;9.21;100.00;102141.66;5043999;28;20166;-75
2023/11/23 09:27:45;;;;;;;29.13;19.75;;;;;;;9.22;100.00;102141.69;5040930;28;20477;-74
2023/11/23 09:30:11;;;;;;;30.90;21.05;;;;;;;9.24;100.00;102120.63;5043513;28;20029;-74
2023/11/23 09:32:38;;;;;;;30.40;20.38;;;;;;;9.26;100.00;102124.19;5035198;28;20049;-75
2023/11/23 09:35:10;;;;;;;29.23;20.05;;;;;;;9.31;100.00;102117.34;5044063;28;20017;-75
2023/11/23 09:37:35;;;;;;;29.67;19.55;;;;;;;9.33;100.00;102115.63;5037223;28;20022;-75
2023/11/23 09:40:02;;;;;;;30.40;19.88;;;;;;;9.39;100.00;102109.63;5043875;28;20594;-75
2023/11/23 09:42:27;;;;;;;28.70;19.85;;;;;;;9.38;100.00;102092.03;5041154;28;20029;-75
2023/11/23 09:44:56;;;;;;;29.25;20.83;;;;;;;9.39;100.00;102078.88;5041482;28;20029;-75
2023/11/23 09:47:31;;;;;;;29.00;20.40;;;;;;;9.37;100.00;102091.13;5040060;28;20403;-76
2023/11/23 09:49:58;;;;;;;29.67;20.38;;;;;;;9.51;100.00;102103.81;5043248;28;20040;-73
2023/11/23 09:52:24;;;;;;;31.00;20.25;;;;;;;9.54;100.00;102109.22;5041297;28;20480;-73
2023/11/23 09:54:50;;;;;;;30.20;20.20;;;;;;;9.51;100.00;102106.44;5041005;28;20045;-74
2023/11/23 09:57:16;;;;;;;29.25;20.35;;;;;;;9.50;100.00;102112.59;5042204;28;20492;-74
2023/11/23 09:59:42;;;;;;;30.98;20.27;;;;;;;9.47;100.00;102101.97;5041211;28;20129;-72
2023/11/23 10:02:09;;;;;;;29.80;21.52;;;;;;;9.48;100.00;102090.53;5043552;28;20028;-73
2023/11/23 10:04:35;;;;;;;29.80;20.58;;;;;;;9.57;100.00;102094.34;5040230;28;20465;-72
2023/11/23 10:07:01;;;;;;;28.92;20.30;;;;;;;9.61;100.00;102097.97;5037578;28;20064;-71
2023/11/23 10:09:27;;;;;;;30.20;21.13;;;;;;;9.59;100.00;102099.66;5046855;28;20069;-73
2023/11/23 10:11:56;;;;;;;28.20;19.10;;;;;;;9.69;100.00;102100.81;5044688;28;20104;-73
2023/11/23 10:14:21;;;;;;;29.48;19.75;;;;;;;9.67;100.00;102090.22;5045967;28;20033;-72
2023/11/23 10:16:46;;;;;;;27.52;18.92;;;;;;;9.68;100.00;102099.91;5045401;28;20033;-74
2023/11/23 10:19:24;;;;;;;27.27;18.17;;;;;;;9.72;100.00;102085.06;5044253;28;20037;-75
2023/11/23 10:21:58;;;;;;;28.73;18.30;;;;;;;9.77;100.00;102086.06;5045200;28;20483;-73
2023/11/23 10:24:25;;;;;;;26.77;17.45;;;;;;;9.85;100.00;102065.16;5046155;28;20378;-73
2023/11/23 10:26:51;;;;;;;26.80;16.90;;;;;;;9.91;100.00;102041.53;5045018;28;20029;-74
2023/11/23 10:29:18;;;;;;;27.02;16.77;;;;;;;9.99;100.00;102039.09;5044831;28;20030;-73
2023/11/23 10:31:43;;;;;;;25.83;15.50;;;;;;;10.04;100.00;102043.66;5045878;28;20361;-74
2023/11/23 10:34:10;;;;;;;27.20;15.85;;;;;;;10.04;100.00;102058.63;5043672;28;20112;-73
2023/11/23 10:36:40;;;;;;;27.33;16.15;;;;;;;10.07;100.00;102058.69;5046521;28;20039;-73
2023/11/23 10:39:11;;;;;;;26.70;16.33;;;;;;;10.09;100.00;102044.66;5043533;28;20068;-73
2023/11/23 10:41:39;;;;;;;27.00;16.70;;;;;;;10.19;100.00;102029.03;5040132;28;20025;-72
2023/11/23 10:44:05;;;;;;;27.10;16.38;;;;;;;10.27;100.00;102049.50;5046589;28;20021;-71
2023/11/23 10:46:30;;;;;;;26.50;16.73;;;;;;;10.20;100.00;102044.94;5042890;28;20084;-74
2023/11/23 10:48:56;;;;;;;25.67;15.95;;;;;;;10.18;100.00;102038.72;5046087;28;20075;-73
2023/11/23 10:51:25;;;;;;;26.23;15.63;;;;;;;10.17;100.00;102044.84;5044195;28;20476;-75
2023/11/23 10:53:51;;;;;;;27.15;15.48;;;;;;;10.14;100.00;102039.50;5045045;28;20033;-72
2023/11/23 10:56:22;;;;;;;25.23;15.00;;;;;;;10.21;100.00;102040.56;5044800;28;20526;-74
2023/11/23 10:58:50;;;;;;;26.43;15.10;;;;;;;10.26;100.00;102036.25;5044441;28;20492;-74
2023/11/23 11:01:21;;;;;;;25.05;14.35;;;;;;;10.30;100.00;102032.84;5045221;28;20025;-73
2023/11/23 11:03:48;;;;;;;26.52;14.07;;;;;;;10.36;100.00;102037.41;5044385;28;20034;-72